Terminal Aerodrome Forecast
Issued by NWS

Home | Current Version | Previous Version | Text Only | Print | Product List | Glossary On
Versions: 1 2 3 4 5 6 7 8 9 10 11 12 13 14 15 16 17 18 19
000
FTUS43 KPAH 170520
TAFCGI
TAF
KCGI 170520Z 1706/1806 00000KT P6SM SCT040 BKN250
      TEMPO 1709/1713 3SM BR BKN040
     FM171400 10004KT P6SM SCT035
     FM171800 11005KT P6SM BKN040
     FM180000 14003KT P6SM BKN130=

USA.gov is the U.S. government's official web portal to all federal, state and local government web resources and services.